sensor_id;sensor_type;location;lat;lon;timestamp;pressure;altitude;pressure_sealevel;temperature;humidity
6942;BME280;3510;43.200;27.920;2023-05-23T00:01:30;100632.63;;;24.68;43.26
6942;BME280;3510;43.200;27.920;2023-05-23T00:03:56;100631.50;;;24.95;42.84
6942;BME280;3510;43.200;27.920;2023-05-23T00:06:23;100624.31;;;25.58;41.28
6942;BME280;3510;43.200;27.920;2023-05-23T00:08:50;100627.22;;;25.75;40.87
6942;BME280;3510;43.200;27.920;2023-05-23T00:11:17;100628.44;;;25.49;41.69
6942;BME280;3510;43.200;27.920;2023-05-23T00:13:44;100624.88;;;25.85;41.23
6942;BME280;3510;43.200;27.920;2023-05-23T00:16:11;100627.59;;;25.92;41.15
6942;BME280;3510;43.200;27.920;2023-05-23T00:18:37;100624.75;;;25.78;41.34
6942;BME280;3510;43.200;27.920;2023-05-23T00:21:07;100618.97;;;25.49;41.42
6942;BME280;3510;43.200;27.920;2023-05-23T00:23:33;100619.22;;;25.60;41.35
6942;BME280;3510;43.200;27.920;2023-05-23T00:26:01;100623.41;;;24.78;42.64
6942;BME280;3510;43.200;27.920;2023-05-23T00:28:28;100620.19;;;24.88;42.72
6942;BME280;3510;43.200;27.920;2023-05-23T00:30:54;100616.56;;;24.78;42.44
6942;BME280;3510;43.200;27.920;2023-05-23T00:33:21;100617.22;;;25.47;41.29
6942;BME280;3510;43.200;27.920;2023-05-23T00:35:47;100618.56;;;25.72;40.96
6942;BME280;3510;43.200;27.920;2023-05-23T00:38:14;100620.28;;;24.91;41.91
6942;BME280;3510;43.200;27.920;2023-05-23T00:40:40;100609.00;;;24.86;42.21
6942;BME280;3510;43.200;27.920;2023-05-23T00:43:08;100610.38;;;25.09;41.72
6942;BME280;3510;43.200;27.920;2023-05-23T00:45:35;100607.47;;;25.76;40.57
6942;BME280;3510;43.200;27.920;2023-05-23T00:48:02;100602.38;;;24.59;42.76
6942;BME280;3510;43.200;27.920;2023-05-23T00:50:29;100614.78;;;25.54;40.77
6942;BME280;3510;43.200;27.920;2023-05-23T00:52:56;100612.63;;;25.74;40.31
6942;BME280;3510;43.200;27.920;2023-05-23T00:55:24;100609.00;;;25.24;41.10
6942;BME280;3510;43.200;27.920;2023-05-23T00:57:51;100607.06;;;25.14;41.44
6942;BME280;3510;43.200;27.920;2023-05-23T01:00:21;100607.97;;;24.78;41.99
6942;BME280;3510;43.200;27.920;2023-05-23T01:02:49;100607.44;;;24.55;42.50
6942;BME280;3510;43.200;27.920;2023-05-23T01:05:16;100610.66;;;24.82;41.78
6942;BME280;3510;43.200;27.920;2023-05-23T01:07:43;100604.03;;;24.57;42.42
6942;BME280;3510;43.200;27.920;2023-05-23T01:10:11;100606.00;;;24.66;42.54
6942;BME280;3510;43.200;27.920;2023-05-23T01:12:40;100600.88;;;24.69;42.42
6942;BME280;3510;43.200;27.920;2023-05-23T01:15:11;100603.25;;;24.96;41.79
6942;BME280;3510;43.200;27.920;2023-05-23T01:17:43;100626.25;;;24.89;41.94
6942;BME280;3510;43.200;27.920;2023-05-23T01:20:11;100606.31;;;24.44;42.97
6942;BME280;3510;43.200;27.920;2023-05-23T01:22:48;100596.09;;;25.22;41.83
6942;BME280;3510;43.200;27.920;2023-05-23T01:25:23;100597.16;;;24.93;42.00
6942;BME280;3510;43.200;27.920;2023-05-23T01:27:58;100593.72;;;24.56;42.46
6942;BME280;3510;43.200;27.920;2023-05-23T01:30:26;100602.00;;;24.80;42.20
6942;BME280;3510;43.200;27.920;2023-05-23T01:32:53;100599.56;;;24.49;42.26
6942;BME280;3510;43.200;27.920;2023-05-23T01:35:23;100602.81;;;24.42;42.69
6942;BME280;3510;43.200;27.920;2023-05-23T01:37:51;100595.19;;;24.81;41.83
6942;BME280;3510;43.200;27.920;2023-05-23T01:40:17;100603.50;;;24.03;43.55
6942;BME280;3510;43.200;27.920;2023-05-23T01:42:44;100595.28;;;24.49;42.50
6942;BME280;3510;43.200;27.920;2023-05-23T01:45:12;100604.41;;;24.38;42.93
6942;BME280;3510;43.200;27.920;2023-05-23T01:47:39;100601.19;;;24.13;43.66
6942;BME280;3510;43.200;27.920;2023-05-23T01:50:07;100589.16;;;24.44;43.12
6942;BME280;3510;43.200;27.920;2023-05-23T01:52:34;100587.78;;;24.58;42.39
6942;BME280;3510;43.200;27.920;2023-05-23T01:55:01;100587.59;;;24.51;42.91
6942;BME280;3510;43.200;27.920;2023-05-23T01:57:28;100593.53;;;24.84;42.02
6942;BME280;3510;43.200;27.920;2023-05-23T01:59:56;100585.59;;;24.39;43.19
6942;BME280;3510;43.200;27.920;2023-05-23T02:02:23;100597.06;;;24.90;42.22
6942;BME280;3510;43.200;27.920;2023-05-23T02:04:50;100591.31;;;24.63;42.42
6942;BME280;3510;43.200;27.920;2023-05-23T02:07:18;100584.91;;;24.82;42.13
6942;BME280;3510;43.200;27.920;2023-05-23T02:09:47;100590.69;;;24.37;42.78
6942;BME280;3510;43.200;27.920;2023-05-23T02:12:13;100591.25;;;24.98;42.14
6942;BME280;3510;43.200;27.920;2023-05-23T02:14:40;100586.19;;;25.03;41.55
6942;BME280;3510;43.200;27.920;2023-05-23T02:17:07;100581.50;;;25.23;41.49
6942;BME280;3510;43.200;27.920;2023-05-23T02:19:35;100580.25;;;25.05;41.40
6942;BME280;3510;43.200;27.920;2023-05-23T02:22:01;100577.25;;;24.48;42.75
6942;BME280;3510;43.200;27.920;2023-05-23T02:24:28;100579.00;;;24.17;43.55
6942;BME280;3510;43.200;27.920;2023-05-23T02:26:55;100584.28;;;24.55;42.75
6942;BME280;3510;43.200;27.920;2023-05-23T02:29:21;100579.72;;;24.45;42.75
6942;BME280;3510;43.200;27.920;2023-05-23T02:31:47;100584.31;;;24.58;42.49
6942;BME280;3510;43.200;27.920;2023-05-23T02:34:14;100586.25;;;24.67;42.52
6942;BME280;3510;43.200;27.920;2023-05-23T02:36:42;100582.91;;;25.93;40.11
6942;BME280;3510;43.200;27.920;2023-05-23T02:39:08;100575.03;;;25.86;39.85
6942;BME280;3510;43.200;27.920;2023-05-23T02:41:49;100584.28;;;24.55;42.79
6942;BME280;3510;43.200;27.920;2023-05-23T02:44:16;100589.53;;;24.26;43.70
6942;BME280;3510;43.200;27.920;2023-05-23T02:46:43;100588.31;;;24.12;43.88
6942;BME280;3510;43.200;27.920;2023-05-23T02:49:10;100585.06;;;24.52;43.37
6942;BME280;3510;43.200;27.920;2023-05-23T02:51:37;100582.81;;;24.66;43.25
6942;BME280;3510;43.200;27.920;2023-05-23T02:56:48;100593.03;;;25.01;42.12
6942;BME280;3510;43.200;27.920;2023-05-23T02:59:16;100583.84;;;24.74;43.22
6942;BME280;3510;43.200;27.920;2023-05-23T03:01:43;100591.06;;;25.28;41.45
6942;BME280;3510;43.200;27.920;2023-05-23T03:04:09;100587.72;;;24.93;42.43
6942;BME280;3510;43.200;27.920;2023-05-23T03:06:37;100577.88;;;25.13;41.79
6942;BME280;3510;43.200;27.920;2023-05-23T03:09:06;100587.56;;;24.87;42.73
6942;BME280;3510;43.200;27.920;2023-05-23T03:11:38;100586.00;;;24.56;43.19
6942;BME280;3510;43.200;27.920;2023-05-23T03:14:06;100575.38;;;24.80;42.96
6942;BME280;3510;43.200;27.920;2023-05-23T03:16:35;100596.03;;;25.19;41.90
6942;BME280;3510;43.200;27.920;2023-05-23T03:19:02;100590.03;;;25.19;41.71
6942;BME280;3510;43.200;27.920;2023-05-23T03:21:28;100585.41;;;25.46;41.57
6942;BME280;3510;43.200;27.920;2023-05-23T03:23:55;100588.84;;;25.06;41.96
6942;BME280;3510;43.200;27.920;2023-05-23T03:26:22;100591.13;;;25.30;41.59
6942;BME280;3510;43.200;27.920;2023-05-23T03:28:49;100606.78;;;25.81;40.60
6942;BME280;3510;43.200;27.920;2023-05-23T03:31:17;100593.50;;;25.63;40.65
6942;BME280;3510;43.200;27.920;2023-05-23T03:33:44;100611.41;;;26.01;39.76
6942;BME280;3510;43.200;27.920;2023-05-23T03:36:10;100602.50;;;25.83;40.25
6942;BME280;3510;43.200;27.920;2023-05-23T03:38:36;100598.78;;;26.16;40.04
6942;BME280;3510;43.200;27.920;2023-05-23T03:41:03;100620.63;;;25.46;41.32
6942;BME280;3510;43.200;27.920;2023-05-23T03:43:29;100614.28;;;25.72;40.63
6942;BME280;3510;43.200;27.920;2023-05-23T03:45:57;100619.00;;;25.51;40.71
6942;BME280;3510;43.200;27.920;2023-05-23T03:48:25;100620.19;;;25.24;41.44
6942;BME280;3510;43.200;27.920;2023-05-23T03:50:51;100627.91;;;25.24;41.51
6942;BME280;3510;43.200;27.920;2023-05-23T03:53:18;100631.03;;;25.93;40.64
6942;BME280;3510;43.200;27.920;2023-05-23T03:55:44;100631.06;;;25.94;40.26
6942;BME280;3510;43.200;27.920;2023-05-23T03:58:11;100626.72;;;25.49;41.25
6942;BME280;3510;43.200;27.920;2023-05-23T04:00:37;100626.94;;;25.60;41.42
6942;BME280;3510;43.200;27.920;2023-05-23T04:03:04;100632.38;;;25.74;40.75
6942;BME280;3510;43.200;27.920;2023-05-23T04:05:32;100631.56;;;25.35;41.14
6942;BME280;3510;43.200;27.920;2023-05-23T04:07:58;100630.00;;;25.83;40.45
6942;BME280;3510;43.200;27.920;2023-05-23T04:10:26;100623.13;;;26.32;39.74
6942;BME280;3510;43.200;27.920;2023-05-23T04:12:52;100617.47;;;25.59;41.03
6942;BME280;3510;43.200;27.920;2023-05-23T04:15:21;100625.09;;;25.97;40.52
6942;BME280;3510;43.200;27.920;2023-05-23T04:17:47;100627.16;;;25.72;40.60
6942;BME280;3510;43.200;27.920;2023-05-23T04:20:15;100628.19;;;26.26;39.90
6942;BME280;3510;43.200;27.920;2023-05-23T04:22:43;100624.13;;;25.49;41.24
6942;BME280;3510;43.200;27.920;2023-05-23T04:25:09;100633.09;;;26.59;39.06
6942;BME280;3510;43.200;27.920;2023-05-23T04:27:36;100626.63;;;27.48;37.53
6942;BME280;3510;43.200;27.920;2023-05-23T04:30:04;100637.69;;;27.38;37.81
6942;BME280;3510;43.200;27.920;2023-05-23T04:32:32;100634.00;;;27.90;36.92
6942;BME280;3510;43.200;27.920;2023-05-23T04:34:58;100634.00;;;28.91;35.26
6942;BME280;3510;43.200;27.920;2023-05-23T04:37:26;100635.06;;;28.08;36.14
6942;BME280;3510;43.200;27.920;2023-05-23T04:39:54;100633.19;;;27.24;37.75
6942;BME280;3510;43.200;27.920;2023-05-23T04:42:20;100649.03;;;27.49;37.32
6942;BME280;3510;43.200;27.920;2023-05-23T04:44:48;100648.59;;;27.84;36.86
6942;BME280;3510;43.200;27.920;2023-05-23T04:47:15;100650.72;;;27.47;37.67
6942;BME280;3510;43.200;27.920;2023-05-23T04:49:41;100660.53;;;26.54;39.24
6942;BME280;3510;43.200;27.920;2023-05-23T04:52:08;100648.31;;;25.98;40.43
6942;BME280;3510;43.200;27.920;2023-05-23T04:54:34;100643.44;;;26.12;40.31
6942;BME280;3510;43.200;27.920;2023-05-23T04:57:02;100654.59;;;26.11;40.10
6942;BME280;3510;43.200;27.920;2023-05-23T04:59:30;100652.28;;;25.79;40.67
6942;BME280;3510;43.200;27.920;2023-05-23T05:01:56;100650.31;;;26.60;39.14
6942;BME280;3510;43.200;27.920;2023-05-23T05:04:23;100659.72;;;26.57;39.12
6942;BME280;3510;43.200;27.920;2023-05-23T05:06:49;100659.66;;;26.06;39.79
6942;BME280;3510;43.200;27.920;2023-05-23T05:09:17;100663.69;;;26.91;38.60
6942;BME280;3510;43.200;27.920;2023-05-23T05:11:43;100660.19;;;25.89;40.31
6942;BME280;3510;43.200;27.920;2023-05-23T05:14:11;100657.88;;;26.51;39.24
6942;BME280;3510;43.200;27.920;2023-05-23T05:16:38;100663.28;;;26.18;39.88
6942;BME280;3510;43.200;27.920;2023-05-23T05:19:04;100667.34;;;26.49;39.49
6942;BME280;3510;43.200;27.920;2023-05-23T05:21:31;100656.41;;;27.20;38.01
6942;BME280;3510;43.200;27.920;2023-05-23T05:23:57;100647.66;;;26.56;38.62
6942;BME280;3510;43.200;27.920;2023-05-23T05:26:24;100673.84;;;26.78;38.37
6942;BME280;3510;43.200;27.920;2023-05-23T05:28:52;100672.97;;;26.78;38.28
6942;BME280;3510;43.200;27.920;2023-05-23T05:31:20;100671.91;;;25.74;39.87
6942;BME280;3510;43.200;27.920;2023-05-23T05:33:46;100678.19;;;26.33;39.64
6942;BME280;3510;43.200;27.920;2023-05-23T05:36:13;100671.53;;;25.97;39.98
6942;BME280;3510;43.200;27.920;2023-05-23T05:38:40;100685.25;;;26.43;38.84
6942;BME280;3510;43.200;27.920;2023-05-23T05:41:07;100685.06;;;26.32;39.51
6942;BME280;3510;43.200;27.920;2023-05-23T05:43:34;100682.25;;;27.21;37.82
6942;BME280;3510;43.200;27.920;2023-05-23T05:46:01;100690.75;;;27.14;37.58
6942;BME280;3510;43.200;27.920;2023-05-23T05:48:29;100688.72;;;27.53;37.67
6942;BME280;3510;43.200;27.920;2023-05-23T05:50:55;100689.50;;;28.15;36.13
6942;BME280;3510;43.200;27.920;2023-05-23T05:53:25;100711.44;;;27.14;37.75
6942;BME280;3510;43.200;27.920;2023-05-23T05:55:52;100693.94;;;26.99;38.27
6942;BME280;3510;43.200;27.920;2023-05-23T05:58:19;100688.81;;;28.36;36.39
6942;BME280;3510;43.200;27.920;2023-05-23T06:00:46;100690.09;;;27.93;36.71
6942;BME280;3510;43.200;27.920;2023-05-23T06:03:13;100693.81;;;29.15;34.90
6942;BME280;3510;43.200;27.920;2023-05-23T06:05:41;100687.25;;;28.51;35.84
6942;BME280;3510;43.200;27.920;2023-05-23T06:08:08;100660.78;;;28.85;35.34
6942;BME280;3510;43.200;27.920;2023-05-23T06:10:36;100693.31;;;28.53;36.35
6942;BME280;3510;43.200;27.920;2023-05-23T06:13:03;100690.63;;;29.58;34.42
6942;BME280;3510;43.200;27.920;2023-05-23T06:15:30;100684.41;;;29.30;34.82
6942;BME280;3510;43.200;27.920;2023-05-23T06:17:57;100691.50;;;29.64;34.30
6942;BME280;3510;43.200;27.920;2023-05-23T06:20:24;100691.22;;;28.16;36.83
6942;BME280;3510;43.200;27.920;2023-05-23T06:22:52;100690.47;;;29.30;35.21
6942;BME280;3510;43.200;27.920;2023-05-23T06:25:19;100685.69;;;27.84;36.98
6942;BME280;3510;43.200;27.920;2023-05-23T06:27:46;100688.16;;;28.53;36.06
6942;BME280;3510;43.200;27.920;2023-05-23T06:30:13;100688.63;;;28.15;36.71
6942;BME280;3510;43.200;27.920;2023-05-23T06:32:40;100691.53;;;28.47;36.32
6942;BME280;3510;43.200;27.920;2023-05-23T06:35:08;100705.97;;;29.24;34.93
6942;BME280;3510;43.200;27.920;2023-05-23T06:37:35;100694.56;;;27.38;37.82
6942;BME280;3510;43.200;27.920;2023-05-23T06:40:03;100692.72;;;27.96;37.57
6942;BME280;3510;43.200;27.920;2023-05-23T06:42:31;100683.22;;;27.95;37.03
6942;BME280;3510;43.200;27.920;2023-05-23T06:44:57;100691.09;;;28.06;37.24
6942;BME280;3510;43.200;27.920;2023-05-23T06:47:24;100697.50;;;28.38;36.48
6942;BME280;3510;43.200;27.920;2023-05-23T06:49:52;100697.47;;;29.50;34.67
6942;BME280;3510;43.200;27.920;2023-05-23T06:52:19;100694.09;;;28.44;36.16
6942;BME280;3510;43.200;27.920;2023-05-23T06:54:45;100694.97;;;28.46;36.73
6942;BME280;3510;43.200;27.920;2023-05-23T06:57:13;100686.16;;;28.26;36.55
6942;BME280;3510;43.200;27.920;2023-05-23T06:59:40;100687.66;;;28.98;35.72
6942;BME280;3510;43.200;27.920;2023-05-23T07:02:22;100670.88;;;28.55;36.30
6942;BME280;3510;43.200;27.920;2023-05-23T07:05:03;100685.69;;;27.20;39.04
6942;BME280;3510;43.200;27.920;2023-05-23T07:07:30;100690.75;;;27.11;39.22
6942;BME280;3510;43.200;27.920;2023-05-23T07:10:11;100681.31;;;28.62;37.04
6942;BME280;3510;43.200;27.920;2023-05-23T07:12:39;100693.09;;;28.30;37.67
6942;BME280;3510;43.200;27.920;2023-05-23T07:15:06;100675.31;;;28.66;36.87
6942;BME280;3510;43.200;27.920;2023-05-23T07:17:33;100663.94;;;30.00;35.58
6942;BME280;3510;43.200;27.920;2023-05-23T07:20:00;100687.44;;;30.78;35.48
6942;BME280;3510;43.200;27.920;2023-05-23T07:22:29;100660.56;;;30.30;36.97
6942;BME280;3510;43.200;27.920;2023-05-23T07:24:55;100664.00;;;30.43;37.02
6942;BME280;3510;43.200;27.920;2023-05-23T07:27:22;100687.41;;;30.60;37.54
6942;BME280;3510;43.200;27.920;2023-05-23T07:29:50;100682.72;;;29.38;39.40
6942;BME280;3510;43.200;27.920;2023-05-23T07:32:17;100682.06;;;29.83;39.13
6942;BME280;3510;43.200;27.920;2023-05-23T07:34:44;100677.75;;;28.51;37.81
6942;BME280;3510;43.200;27.920;2023-05-23T07:37:11;100682.25;;;27.85;40.10
6942;BME280;3510;43.200;27.920;2023-05-23T07:39:40;100669.03;;;28.38;39.54
6942;BME280;3510;43.200;27.920;2023-05-23T07:42:06;100672.00;;;28.86;39.14
6942;BME280;3510;43.200;27.920;2023-05-23T07:44:33;100676.06;;;28.52;39.78
6942;BME280;3510;43.200;27.920;2023-05-23T07:47:02;100684.13;;;28.94;38.89
6942;BME280;3510;43.200;27.920;2023-05-23T07:49:29;100683.06;;;30.24;36.80
6942;BME280;3510;43.200;27.920;2023-05-23T07:51:56;100680.31;;;29.75;37.72
6942;BME280;3510;43.200;27.920;2023-05-23T07:54:24;100672.66;;;30.73;36.35
6942;BME280;3510;43.200;27.920;2023-05-23T07:56:51;100690.72;;;31.55;34.96
6942;BME280;3510;43.200;27.920;2023-05-23T07:59:19;100690.84;;;31.31;35.59
6942;BME280;3510;43.200;27.920;2023-05-23T08:01:47;100615.44;;;31.16;35.02
6942;BME280;3510;43.200;27.920;2023-05-23T08:04:16;100689.97;;;31.23;36.06
6942;BME280;3510;43.200;27.920;2023-05-23T08:06:43;100694.97;;;31.81;35.37
6942;BME280;3510;43.200;27.920;2023-05-23T08:09:11;100673.34;;;29.60;37.42
6942;BME280;3510;43.200;27.920;2023-05-23T08:11:38;100676.91;;;29.99;37.83
6942;BME280;3510;43.200;27.920;2023-05-23T08:14:05;100683.81;;;29.95;38.56
6942;BME280;3510;43.200;27.920;2023-05-23T08:16:34;100688.31;;;30.76;37.36
6942;BME280;3510;43.200;27.920;2023-05-23T08:19:01;100673.56;;;30.64;37.93
6942;BME280;3510;43.200;27.920;2023-05-23T08:21:29;100682.06;;;31.55;35.97
6942;BME280;3510;43.200;27.920;2023-05-23T08:23:56;100671.72;;;31.29;35.99
6942;BME280;3510;43.200;27.920;2023-05-23T08:26:23;100658.75;;;31.18;36.39
6942;BME280;3510;43.200;27.920;2023-05-23T08:28:51;100654.25;;;31.66;35.05
6942;BME280;3510;43.200;27.920;2023-05-23T08:31:18;100677.47;;;32.11;35.25
6942;BME280;3510;43.200;27.920;2023-05-23T08:33:46;100677.72;;;31.63;35.93
6942;BME280;3510;43.200;27.920;2023-05-23T08:36:13;100665.59;;;31.56;36.55
6942;BME280;3510;43.200;27.920;2023-05-23T08:38:43;100679.59;;;30.61;37.67
6942;BME280;3510;43.200;27.920;2023-05-23T08:41:17;100678.72;;;31.05;38.00
6942;BME280;3510;43.200;27.920;2023-05-23T08:43:44;100679.63;;;30.89;36.84
6942;BME280;3510;43.200;27.920;2023-05-23T08:46:12;100678.47;;;31.90;35.94
6942;BME280;3510;43.200;27.920;2023-05-23T08:48:39;100642.72;;;32.16;34.36
6942;BME280;3510;43.200;27.920;2023-05-23T08:51:07;100677.00;;;30.92;34.36
6942;BME280;3510;43.200;27.920;2023-05-23T08:53:35;100676.00;;;31.57;33.78
6942;BME280;3510;43.200;27.920;2023-05-23T08:56:05;100678.56;;;31.64;35.40
6942;BME280;3510;43.200;27.920;2023-05-23T08:58:33;100684.69;;;31.56;36.03
6942;BME280;3510;43.200;27.920;2023-05-23T09:01:00;100682.94;;;31.57;36.40
6942;BME280;3510;43.200;27.920;2023-05-23T09:03:27;100682.16;;;31.38;37.15
6942;BME280;3510;43.200;27.920;2023-05-23T09:05:55;100694.13;;;31.79;36.76
6942;BME280;3510;43.200;27.920;2023-05-23T09:08:23;100697.66;;;31.67;37.09
6942;BME280;3510;43.200;27.920;2023-05-23T09:10:50;100667.50;;;30.60;38.20
6942;BME280;3510;43.200;27.920;2023-05-23T09:13:19;100669.09;;;29.83;39.97
6942;BME280;3510;43.200;27.920;2023-05-23T09:16:00;100685.50;;;28.45;43.13
6942;BME280;3510;43.200;27.920;2023-05-23T09:18:33;100676.00;;;29.83;40.97
6942;BME280;3510;43.200;27.920;2023-05-23T09:21:01;100677.72;;;29.75;40.18
6942;BME280;3510;43.200;27.920;2023-05-23T09:23:30;100676.81;;;31.69;37.59
6942;BME280;3510;43.200;27.920;2023-05-23T09:26:01;100670.38;;;32.34;35.59
6942;BME280;3510;43.200;27.920;2023-05-23T09:28:30;100661.50;;;32.60;34.87
6942;BME280;3510;43.200;27.920;2023-05-23T09:30:57;100664.25;;;32.41;34.94
6942;BME280;3510;43.200;27.920;2023-05-23T09:33:29;100646.59;;;31.25;36.15
6942;BME280;3510;43.200;27.920;2023-05-23T09:35:59;100641.47;;;30.97;36.83
6942;BME280;3510;43.200;27.920;2023-05-23T09:38:27;100670.47;;;32.19;35.46
6942;BME280;3510;43.200;27.920;2023-05-23T09:40:54;100649.22;;;31.26;36.20
6942;BME280;3510;43.200;27.920;2023-05-23T09:43:22;100682.22;;;31.07;36.72
6942;BME280;3510;43.200;27.920;2023-05-23T09:45:52;100684.78;;;31.12;36.62
6942;BME280;3510;43.200;27.920;2023-05-23T09:48:19;100691.44;;;32.00;36.01
6942;BME280;3510;43.200;27.920;2023-05-23T09:50:46;100691.59;;;31.64;36.13
6942;BME280;3510;43.200;27.920;2023-05-23T09:53:15;100670.94;;;30.35;38.34
6942;BME280;3510;43.200;27.920;2023-05-23T09:55:46;100691.34;;;29.34;40.52
6942;BME280;3510;43.200;27.920;2023-05-23T09:58:16;100690.72;;;29.85;39.52
6942;BME280;3510;43.200;27.920;2023-05-23T10:00:44;100693.50;;;28.76;41.75
6942;BME280;3510;43.200;27.920;2023-05-23T10:03:15;100671.38;;;29.19;40.58
6942;BME280;3510;43.200;27.920;2023-05-23T10:05:45;100696.53;;;29.34;40.66
6942;BME280;3510;43.200;27.920;2023-05-23T10:08:15;100702.31;;;28.98;40.64
6942;BME280;3510;43.200;27.920;2023-05-23T10:13:43;100705.53;;;30.22;38.63
6942;BME280;3510;43.200;27.920;2023-05-23T10:16:15;100703.81;;;30.18;38.74
6942;BME280;3510;43.200;27.920;2023-05-23T10:18:50;100717.63;;;30.07;38.99
6942;BME280;3510;43.200;27.920;2023-05-23T10:21:26;100715.06;;;30.20;38.53
6942;BME280;3510;43.200;27.920;2023-05-23T10:23:57;100711.50;;;29.85;39.30
6942;BME280;3510;43.200;27.920;2023-05-23T10:26:25;100703.63;;;29.69;39.20
6942;BME280;3510;43.200;27.920;2023-05-23T10:28:53;100711.66;;;28.77;40.84
6942;BME280;3510;43.200;27.920;2023-05-23T10:31:22;100720.50;;;28.12;42.71
6942;BME280;3510;43.200;27.920;2023-05-23T10:33:57;100674.75;;;27.40;43.81
6942;BME280;3510;43.200;27.920;2023-05-23T10:36:32;100683.78;;;27.10;44.61
6942;BME280;3510;43.200;27.920;2023-05-23T10:39:07;100715.03;;;27.86;43.34
6942;BME280;3510;43.200;27.920;2023-05-23T10:41:42;100613.50;;;27.34;42.80
6942;BME280;3510;43.200;27.920;2023-05-23T10:44:17;100703.69;;;27.77;43.09
6942;BME280;3510;43.200;27.920;2023-05-23T10:46:50;100729.56;;;27.77;43.86
6942;BME280;3510;43.200;27.920;2023-05-23T10:49:39;100636.66;;;26.67;45.33
6942;BME280;3510;43.200;27.920;2023-05-23T10:52:09;100734.53;;;27.03;46.02
6942;BME280;3510;43.200;27.920;2023-05-23T10:54:36;100748.53;;;27.16;46.55
6942;BME280;3510;43.200;27.920;2023-05-23T10:57:08;100746.47;;;26.97;47.63
6942;BME280;3510;43.200;27.920;2023-05-23T10:59:35;100749.09;;;26.50;48.02
6942;BME280;3510;43.200;27.920;2023-05-23T11:02:02;100736.84;;;25.96;49.64
6942;BME280;3510;43.200;27.920;2023-05-23T11:04:32;100746.81;;;26.67;48.11
6942;BME280;3510;43.200;27.920;2023-05-23T11:10:03;100739.38;;;27.37;47.58
6942;BME280;3510;43.200;27.920;2023-05-23T11:12:37;100737.81;;;28.15;46.40
6942;BME280;3510;43.200;27.920;2023-05-23T11:15:18;100738.25;;;28.58;45.97
6942;BME280;3510;43.200;27.920;2023-05-23T11:17:49;100731.56;;;28.81;44.98
6942;BME280;3510;43.200;27.920;2023-05-23T11:20:17;100729.03;;;28.89;45.02
6942;BME280;3510;43.200;27.920;2023-05-23T11:22:53;100723.53;;;28.55;45.50
6942;BME280;3510;43.200;27.920;2023-05-23T11:25:38;100702.75;;;27.73;46.36
6942;BME280;3510;43.200;27.920;2023-05-23T11:28:06;100726.34;;;28.78;45.06
6942;BME280;3510;43.200;27.920;2023-05-23T11:30:34;100734.75;;;28.54;44.92
6942;BME280;3510;43.200;27.920;2023-05-23T11:33:06;100725.25;;;29.64;42.36
6942;BME280;3510;43.200;27.920;2023-05-23T11:35:36;100721.97;;;30.11;41.85
6942;BME280;3510;43.200;27.920;2023-05-23T11:38:03;100712.50;;;30.73;40.06
6942;BME280;3510;43.200;27.920;2023-05-23T11:40:35;100731.59;;;31.20;38.81
6942;BME280;3510;43.200;27.920;2023-05-23T11:43:04;100688.16;;;31.49;38.52
6942;BME280;3510;43.200;27.920;2023-05-23T11:45:33;100695.69;;;32.12;37.54
6942;BME280;3510;43.200;27.920;2023-05-23T11:48:06;100730.13;;;32.59;36.09
6942;BME280;3510;43.200;27.920;2023-05-23T11:50:42;100722.75;;;31.76;36.73
6942;BME280;3510;43.200;27.920;2023-05-23T11:53:09;100711.53;;;29.93;39.23
6942;BME280;3510;43.200;27.920;2023-05-23T11:55:39;100708.50;;;29.13;41.78
6942;BME280;3510;43.200;27.920;2023-05-23T11:58:06;100716.31;;;29.21;41.82
6942;BME280;3510;43.200;27.920;2023-05-23T12:00:42;100715.81;;;29.82;40.67
6942;BME280;3510;43.200;27.920;2023-05-23T12:03:08;100716.81;;;30.19;40.17
6942;BME280;3510;43.200;27.920;2023-05-23T12:05:36;100686.50;;;31.35;37.50
6942;BME280;3510;43.200;27.920;2023-05-23T12:08:03;100719.44;;;32.94;35.76
6942;BME280;3510;43.200;27.920;2023-05-23T12:10:30;100716.50;;;34.59;33.29
6942;BME280;3510;43.200;27.920;2023-05-23T12:12:59;100711.09;;;34.15;32.29
6942;BME280;3510;43.200;27.920;2023-05-23T12:15:26;100699.75;;;33.45;33.37
6942;BME280;3510;43.200;27.920;2023-05-23T12:17:56;100701.41;;;32.68;34.53
6942;BME280;3510;43.200;27.920;2023-05-23T12:20:25;100703.75;;;31.63;35.71
6942;BME280;3510;43.200;27.920;2023-05-23T12:22:53;100707.28;;;31.42;36.56
6942;BME280;3510;43.200;27.920;2023-05-23T12:25:20;100676.16;;;30.93;37.00
6942;BME280;3510;43.200;27.920;2023-05-23T12:27:48;100698.84;;;28.97;40.98
6942;BME280;3510;43.200;27.920;2023-05-23T12:30:16;100704.56;;;29.86;39.79
6942;BME280;3510;43.200;27.920;2023-05-23T12:32:44;100685.56;;;30.02;38.85
6942;BME280;3510;43.200;27.920;2023-05-23T12:35:13;100652.72;;;28.50;41.28
6942;BME280;3510;43.200;27.920;2023-05-23T12:37:41;100700.38;;;31.03;38.35
6942;BME280;3510;43.200;27.920;2023-05-23T12:40:13;100650.78;;;31.69;35.97
6942;BME280;3510;43.200;27.920;2023-05-23T12:42:48;100691.66;;;31.42;36.72
6942;BME280;3510;43.200;27.920;2023-05-23T12:45:16;100676.59;;;33.87;33.07
6942;BME280;3510;43.200;27.920;2023-05-23T12:47:43;100660.94;;;34.46;31.22
6942;BME280;3510;43.200;27.920;2023-05-23T12:50:10;100699.47;;;34.35;31.64
6942;BME280;3510;43.200;27.920;2023-05-23T12:52:37;100692.22;;;34.54;31.01
6942;BME280;3510;43.200;27.920;2023-05-23T12:55:06;100680.75;;;33.33;33.27
6942;BME280;3510;43.200;27.920;2023-05-23T12:57:34;100677.81;;;31.39;35.25
6942;BME280;3510;43.200;27.920;2023-05-23T13:00:01;100683.09;;;30.76;37.50
6942;BME280;3510;43.200;27.920;2023-05-23T13:02:30;100694.31;;;31.13;36.43
6942;BME280;3510;43.200;27.920;2023-05-23T13:04:56;100650.16;;;30.61;37.37
6942;BME280;3510;43.200;27.920;2023-05-23T13:07:23;100681.19;;;29.80;38.91
6942;BME280;3510;43.200;27.920;2023-05-23T13:09:50;100688.25;;;31.09;36.22
6942;BME280;3510;43.200;27.920;2023-05-23T13:12:17;100676.91;;;31.40;35.83
6942;BME280;3510;43.200;27.920;2023-05-23T13:14:44;100685.69;;;30.94;36.78